Time;durP1;ratioP1;P1;durP2;ratioP2;P2;SDS_P1;SDS_P2;PMS_P1;PMS_P2;Temp;Humidity;BMP_temperature;BMP_pressure;BME280_temperature;BME280_humidity;BME280_pressure;Samples;Min_cycle;Max_cycle;Signal;HPM_P1;HPM_P2
2021/04/22 00:01:51;;;;;;;11.30;6.20;;;;;;;8.96;53.66;97579.00;10241137;29;20043;-77
2021/04/22 00:07:11;;;;;;;9.70;5.68;;;;;;;8.89;53.61;97591.78;10214326;29;20395;-76
2021/04/22 00:12:31;;;;;;;10.50;6.07;;;;;;;8.85;53.69;97588.69;10214650;29;20047;-77
2021/04/22 00:17:54;;;;;;;7.18;5.13;;;;;;;8.86;53.68;97588.09;10214491;29;20050;-76
2021/04/22 00:23:15;;;;;;;10.68;5.82;;;;;;;8.91;53.50;97600.25;10240029;29;20066;-76
2021/04/22 00:28:35;;;;;;;10.52;5.95;;;;;;;8.89;53.86;97591.78;10240319;29;20057;-77
2021/04/22 00:33:56;;;;;;;11.95;6.22;;;;;;;8.80;53.39;97598.81;10227244;29;20081;-77
2021/04/22 00:39:16;;;;;;;11.68;6.63;;;;;;;8.72;54.01;97606.56;10240277;29;20078;-76
2021/04/22 00:44:37;;;;;;;10.90;7.05;;;;;;;8.68;54.00;97609.03;10214000;29;20047;-76
2021/04/22 00:49:58;;;;;;;8.50;5.88;;;;;;;8.65;53.67;97610.22;10240586;29;20051;-75
2021/04/22 00:55:18;;;;;;;10.80;6.43;;;;;;;8.66;54.01;97624.88;10226697;29;20047;-76
2021/04/22 01:00:54;;;;;;;10.77;6.30;;;;;;;8.64;53.94;97617.09;10240631;29;20051;-77
2021/04/22 01:06:14;;;;;;;17.42;6.93;;;;;;;8.70;53.85;97614.03;10240799;29;20410;-76
2021/04/22 01:11:35;;;;;;;13.55;6.38;;;;;;;8.77;54.06;97616.66;10226601;29;20466;-76
2021/04/22 01:16:55;;;;;;;9.88;5.93;;;;;;;8.92;53.78;97624.00;10226750;29;20043;-76
2021/04/22 01:22:16;;;;;;;8.85;5.85;;;;;;;9.11;53.75;97617.69;10212953;29;20063;-75
2021/04/22 01:27:39;;;;;;;16.25;6.60;;;;;;;9.26;53.63;97616.59;10212788;29;20051;-76
2021/04/22 01:33:00;;;;;;;11.10;6.50;;;;;;;9.39;53.77;97622.47;10231464;28;20503;-75
2021/04/22 01:38:21;;;;;;;9.93;6.22;;;;;;;9.46;53.71;97621.56;10246984;29;20278;-76
2021/04/22 01:43:41;;;;;;;11.23;5.93;;;;;;;9.46;53.46;97629.94;10246104;29;20044;-76
2021/04/22 01:49:03;;;;;;;10.57;5.65;;;;;;;9.46;53.95;97635.50;10245867;29;20051;-76
2021/04/22 01:54:23;;;;;;;9.48;5.10;;;;;;;9.47;53.83;97633.44;10219411;29;20047;-76
2021/04/22 01:59:44;;;;;;;17.38;6.85;;;;;;;9.40;53.50;97632.28;10245922;29;20051;-76
2021/04/22 02:05:06;;;;;;;8.57;5.50;;;;;;;9.24;54.22;97642.28;10245585;29;20402;-76
2021/04/22 02:10:26;;;;;;;10.45;5.47;;;;;;;9.15;53.96;97648.59;10218619;29;20066;-76
2021/04/22 02:15:47;;;;;;;9.40;5.00;;;;;;;9.12;54.37;97660.91;10231512;29;20047;-77
2021/04/22 02:21:08;;;;;;;8.73;4.95;;;;;;;9.09;54.17;97659.31;10218010;29;20062;-76
2021/04/22 02:26:28;;;;;;;7.60;4.68;;;;;;;9.04;54.58;97669.41;10231135;29;20471;-77
2021/04/22 02:31:49;;;;;;;7.78;4.60;;;;;;;8.95;54.76;97677.75;10231076;29;20047;-76
2021/04/22 02:37:09;;;;;;;8.68;4.95;;;;;;;8.89;55.24;97675.28;10243912;29;20094;-76
2021/04/22 02:42:29;;;;;;;7.32;4.50;;;;;;;8.75;55.67;97683.31;10243235;28;20051;-76
2021/04/22 02:47:50;;;;;;;9.32;3.92;;;;;;;8.64;55.26;97689.44;10243485;29;20043;-75
2021/04/22 02:53:11;;;;;;;9.07;3.33;;;;;;;8.65;55.65;97690.19;10243979;29;20047;-75
2021/04/22 02:58:31;;;;;;;9.60;3.47;;;;;;;8.68;55.34;97695.31;10217852;29;20047;-75
2021/04/22 03:03:52;;;;;;;8.68;2.42;;;;;;;8.68;54.98;97706.44;10230893;29;20054;-75
2021/04/22 03:09:13;;;;;;;7.53;1.90;;;;;;;8.60;54.46;97711.44;10218109;29;20047;-76
2021/04/22 03:14:33;;;;;;;7.07;1.60;;;;;;;8.55;54.45;97718.00;10230906;29;20039;-76
2021/04/22 03:19:54;;;;;;;12.93;1.75;;;;;;;8.49;54.56;97729.41;10244263;29;20043;-75
2021/04/22 03:25:16;;;;;;;5.97;1.40;;;;;;;8.45;53.99;97739.50;10244083;29;20098;-76
2021/04/22 03:30:37;;;;;;;7.05;1.20;;;;;;;8.36;53.84;97745.75;10244764;29;20395;-76
2021/04/22 03:35:57;;;;;;;5.75;1.02;;;;;;;8.25;53.60;97750.53;10230973;29;20082;-76
2021/04/22 03:41:17;;;;;;;5.85;1.10;;;;;;;8.18;52.65;97756.91;10242309;29;20086;-75
2021/04/22 03:46:38;;;;;;;6.70;1.05;;;;;;;8.12;53.05;97775.94;10228902;29;20127;-77
2021/04/22 03:51:58;;;;;;;7.45;1.67;;;;;;;8.06;51.91;97783.78;10228917;29;20410;-76
2021/04/22 03:57:19;;;;;;;5.22;1.10;;;;;;;8.02;52.80;97783.50;10241041;29;20043;-76
2021/04/22 04:02:39;;;;;;;5.90;1.38;;;;;;;7.97;52.76;97770.56;10227929;29;20055;-76
2021/04/22 04:08:00;;;;;;;3.50;1.10;;;;;;;7.87;52.20;97783.69;10241273;29;20047;-75
2021/04/22 04:13:20;;;;;;;5.72;1.15;;;;;;;7.72;52.19;97790.16;10227794;29;20510;-76
2021/04/22 04:18:40;;;;;;;9.55;1.30;;;;;;;7.67;52.06;97796.72;10241202;29;20039;-75
2021/04/22 04:24:03;;;;;;;7.70;1.02;;;;;;;7.57;51.81;97795.91;10240049;29;20063;-76
2021/04/22 04:29:23;;;;;;;6.93;1.05;;;;;;;7.57;51.80;97818.88;10227447;29;20051;-77
2021/04/22 04:34:43;;;;;;;6.78;0.90;;;;;;;7.53;52.04;97826.13;10240775;29;20054;-77
2021/04/22 04:40:06;;;;;;;4.90;1.20;;;;;;;7.47;50.28;97849.34;10214433;29;20047;-77
2021/04/22 04:45:29;;;;;;;7.28;1.05;;;;;;;7.36;50.97;97860.22;10222493;29;20043;-76
2021/04/22 04:50:54;;;;;;;8.27;1.20;;;;;;;7.29;50.92;97874.91;10213214;29;20048;-76
2021/04/22 04:56:17;;;;;;;5.30;1.13;;;;;;;7.17;50.46;97886.47;10200387;29;20043;-76
2021/04/22 05:01:38;;;;;;;4.00;0.95;;;;;;;7.20;50.47;97897.75;10200742;29;20050;-76
2021/04/22 05:06:59;;;;;;;7.28;1.10;;;;;;;7.10;50.13;97906.69;10190038;29;20523;-76
2021/04/22 05:12:19;;;;;;;5.18;1.02;;;;;;;7.23;49.52;97929.91;10208129;29;20199;-76
2021/04/22 05:17:40;;;;;;;8.45;1.75;;;;;;;7.46;48.77;97938.81;10194272;29;20055;-75
2021/04/22 05:23:00;;;;;;;6.47;1.20;;;;;;;7.42;47.08;97950.28;10220804;29;20185;-76
2021/04/22 05:28:22;;;;;;;11.35;2.28;;;;;;;12.29;55.96;97958.06;10220246;29;20043;-77
2021/04/22 05:33:42;;;;;;;8.85;1.75;;;;;;;20.97;44.44;97954.63;10191311;29;20051;-78
2021/04/22 05:39:04;;;;;;;6.88;1.65;;;;;;;28.06;30.85;97964.66;10192483;29;20046;-76
2021/04/22 05:44:26;;;;;;;9.15;2.13;;;;;;;33.16;19.19;97969.84;10179890;29;20048;-77
2021/04/22 05:49:46;;;;;;;7.15;1.60;;;;;;;36.69;13.26;97971.59;10205992;29;20052;-77
2021/04/22 05:55:07;;;;;;;7.30;1.80;;;;;;;39.50;9.28;97989.81;9838270;28;10000572;-77
2021/04/22 06:00:30;;;;;;;8.93;1.77;;;;;;;41.30;6.71;97975.31;10218368;29;20047;-79
2021/04/22 06:05:50;;;;;;;8.80;2.05;;;;;;;43.04;5.38;97982.41;10206908;29;20047;-78
2021/04/22 06:11:10;;;;;;;6.72;1.90;;;;;;;42.45;4.37;97982.91;10222388;29;20054;-77
2021/04/22 06:16:31;;;;;;;5.38;1.77;;;;;;;38.01;5.66;97985.81;10227593;29;20043;-78
2021/04/22 06:21:51;;;;;;;7.68;1.73;;;;;;;33.94;6.86;97981.31;10237208;28;20054;-75
2021/04/22 06:27:12;;;;;;;8.23;1.95;;;;;;;31.33;8.19;97981.94;10204517;29;20051;-76
2021/04/22 06:32:32;;;;;;;9.10;1.70;;;;;;;31.00;8.88;97985.16;10203985;29;20377;-78
2021/04/22 06:37:52;;;;;;;;;;;;;;;28.78;9.56;98015.00;10217895;29;20051;-76
2021/04/22 06:43:13;;;;;;;9.30;1.77;;;;;;;26.28;10.66;98002.31;10203613;29;20358;-75
2021/04/22 06:48:34;;;;;;;9.15;1.80;;;;;;;23.72;12.02;98010.59;10190357;29;20055;-77
2021/04/22 06:53:54;;;;;;;11.52;2.40;;;;;;;22.87;13.57;98006.63;10190263;29;20052;-76
2021/04/22 06:59:15;;;;;;;6.97;2.00;;;;;;;24.71;13.43;98017.41;10189907;29;20415;-75
2021/04/22 07:04:36;;;;;;;9.93;2.30;;;;;;;26.79;13.06;98006.31;10216424;29;20044;-76
2021/04/22 07:09:57;;;;;;;11.23;1.98;;;;;;;29.36;11.61;98010.59;10189807;29;20140;-75
2021/04/22 07:15:18;;;;;;;10.77;2.22;;;;;;;34.54;10.10;98016.16;10202419;29;20047;-76
2021/04/22 07:20:43;;;;;;;6.88;1.90;;;;;;;36.05;7.68;98032.47;10216179;29;20048;-75
2021/04/22 07:26:04;;;;;;;8.18;2.40;;;;;;;34.48;7.18;98027.91;10188856;29;20064;-75
2021/04/22 07:31:28;;;;;;;11.77;2.63;;;;;;;34.88;8.06;98034.91;10202382;29;20380;-75
2021/04/22 07:36:49;;;;;;;8.82;2.22;;;;;;;35.57;6.73;98026.56;10214966;29;20103;-76
2021/04/22 07:42:09;;;;;;;6.28;2.22;;;;;;;34.33;7.68;98036.16;10188363;29;20048;-75
2021/04/22 07:47:30;;;;;;;8.32;2.10;;;;;;;34.52;7.86;98035.78;10201194;29;20047;-75
2021/04/22 07:52:50;;;;;;;11.05;2.38;;;;;;;40.01;5.91;98036.50;10201056;29;20040;-74
2021/04/22 07:58:16;;;;;;;35.22;9.35;;;;;;;42.41;4.16;98041.09;10200764;29;20103;-77
2021/04/22 08:03:36;;;;;;;7.65;2.33;;;;;;;40.02;4.48;98050.28;10200787;29;20040;-75
2021/04/22 08:08:58;;;;;;;9.77;2.40;;;;;;;34.06;6.29;98050.53;10193732;29;20043;-75
2021/04/22 08:14:18;;;;;;;9.45;2.50;;;;;;;30.96;7.48;98053.63;10210614;29;20388;-74
2021/04/22 08:19:39;;;;;;;9.23;2.25;;;;;;;28.32;9.01;98055.88;10211977;29;20510;-76
2021/04/22 08:25:01;;;;;;;11.32;2.70;;;;;;;27.80;9.81;98044.94;10211651;29;20500;-76
2021/04/22 08:30:28;;;;;;;12.15;2.45;;;;;;;27.84;10.34;98044.94;10207162;29;20476;-75
2021/04/22 08:35:49;;;;;;;7.80;2.40;;;;;;;27.95;10.71;98040.66;10186852;29;20059;-75
2021/04/22 08:41:09;;;;;;;9.63;2.10;;;;;;;27.06;10.78;98058.09;10186455;29;20051;-76
2021/04/22 08:46:30;;;;;;;12.00;2.53;;;;;;;24.73;11.77;98065.25;10186765;29;20047;-75
2021/04/22 08:51:51;;;;;;;8.60;3.05;;;;;;;22.97;12.75;98055.25;10186656;29;20039;-75
2021/04/22 08:57:13;;;;;;;;;;;;;;;21.97;13.95;98064.00;10187431;29;20501;-76
2021/04/22 09:02:33;;;;;;;9.98;2.35;;;;;;;21.76;14.47;98056.31;10199575;29;19922;-74
2021/04/22 09:07:54;;;;;;;12.00;2.25;;;;;;;22.03;14.90;98054.22;10199530;29;20052;-75
2021/04/22 09:13:20;;;;;;;8.73;1.98;;;;;;;22.67;14.90;98063.00;10212906;29;20139;-75
2021/04/22 09:18:53;;;;;;;8.55;2.35;;;;;;;24.75;14.48;98077.41;10199325;29;20044;-76
2021/04/22 09:24:16;;;;;;;8.88;2.85;;;;;;;25.88;13.43;98062.66;10199309;29;20060;-74
2021/04/22 09:29:53;;;;;;;8.40;2.45;;;;;;;26.36;12.86;98071.06;10198751;29;20364;-79
2021/04/22 09:35:15;;;;;;;7.90;1.92;;;;;;;26.93;12.60;98068.72;10186383;29;20050;-75
2021/04/22 09:40:38;;;;;;;8.65;1.58;;;;;;;27.75;11.74;98072.88;10199053;29;20431;-77
2021/04/22 09:45:59;;;;;;;5.93;1.83;;;;;;;27.40;12.06;98074.78;10212052;29;20471;-75
2021/04/22 09:51:29;;;;;;;8.27;2.10;;;;;;;27.62;11.83;98072.06;10185407;29;20480;-75
2021/04/22 09:56:52;;;;;;;7.25;2.22;;;;;;;27.27;12.19;98079.00;10192803;29;20046;-76
2021/04/22 10:02:13;;;;;;;9.93;2.20;;;;;;;28.36;12.03;98060.88;10205437;29;20407;-76
2021/04/22 10:07:33;;;;;;;8.05;2.05;;;;;;;29.60;11.43;98058.72;10205234;29;20047;-81
2021/04/22 10:13:01;;;;;;;13.18;2.85;;;;;;;30.59;10.36;98064.69;10204922;29;20070;-74
2021/04/22 10:18:35;;;;;;;11.27;2.67;;;;;;;32.11;9.40;98053.84;10205527;29;20040;-75
2021/04/22 10:24:05;;;;;;;8.35;2.35;;;;;;;33.49;8.80;98066.16;10206144;29;20558;-76
2021/04/22 10:29:25;;;;;;;9.80;2.63;;;;;;;35.80;7.90;98068.00;10231732;29;20054;-77
2021/04/22 10:34:47;;;;;;;10.75;2.15;;;;;;;34.93;7.70;98073.91;10243596;29;20047;-77
2021/04/22 10:40:09;;;;;;;;;;;;;;;32.56;8.46;98062.63;10225490;28;20090;-76
2021/04/22 10:45:31;;;;;;;9.27;2.63;;;;;;;29.34;9.62;98062.34;10242782;29;19923;-75
2021/04/22 10:50:57;;;;;;;10.48;2.17;;;;;;;26.53;11.09;98055.47;10255986;29;20039;-75
2021/04/22 10:56:28;;;;;;;9.95;2.42;;;;;;;25.13;12.05;98053.75;10227443;29;20047;-75
2021/04/22 11:01:48;;;;;;;10.48;1.98;;;;;;;24.48;13.18;98053.41;10241471;29;20141;-76
2021/04/22 11:07:20;;;;;;;7.57;1.85;;;;;;;24.46;13.25;98050.50;10241848;29;20043;-76
2021/04/22 11:12:40;;;;;;;7.87;2.00;;;;;;;23.84;13.67;98055.75;10242245;29;20487;-76
2021/04/22 11:18:10;;;;;;;6.90;2.35;;;;;;;23.11;14.16;98049.88;10215446;29;20314;-76
2021/04/22 11:23:40;;;;;;;8.88;2.38;;;;;;;22.89;14.61;98046.53;10241918;29;20110;-75
2021/04/22 11:29:17;;;;;;;8.85;1.80;;;;;;;23.01;14.56;98043.22;10241707;29;20054;-75
2021/04/22 11:34:38;;;;;;;8.27;1.58;;;;;;;22.67;14.77;98049.50;10228718;29;20051;-74
2021/04/22 11:40:13;;;;;;;8.32;1.50;;;;;;;22.22;15.52;98030.59;10227949;29;20055;-75
2021/04/22 11:45:34;;;;;;;10.60;2.75;;;;;;;21.28;16.77;98045.00;10241595;29;20102;-76
2021/04/22 11:50:56;;;;;;;7.47;1.75;;;;;;;20.84;16.20;98039.38;10240664;29;20059;-76
2021/04/22 11:56:18;;;;;;;7.68;1.65;;;;;;;20.95;16.53;98043.25;10227852;29;20479;-76
2021/04/22 12:01:39;;;;;;;7.00;1.60;;;;;;;20.77;16.50;98040.56;10240324;29;20047;-75
2021/04/22 12:06:59;;;;;;;5.28;2.00;;;;;;;20.77;16.44;98051.19;10226973;28;20051;-76
2021/04/22 12:12:31;;;;;;;5.50;2.25;;;;;;;20.60;16.61;98038.56;10239968;29;20039;-75
2021/04/22 12:17:52;;;;;;;11.10;2.40;;;;;;;20.34;16.81;98021.38;10240868;29;20044;-76
2021/04/22 12:23:12;;;;;;;5.85;1.45;;;;;;;20.15;17.05;98031.38;10226690;29;20051;-77
2021/04/22 12:28:33;;;;;;;6.93;2.25;;;;;;;20.30;16.67;98038.25;10212950;29;20483;-75
2021/04/22 12:33:54;;;;;;;7.88;1.83;;;;;;;20.26;16.93;98029.59;10226382;29;20494;-75
2021/04/22 12:39:21;;;;;;;4.45;1.42;;;;;;;20.14;16.77;98029.91;10239230;29;20136;-75
2021/04/22 12:44:51;;;;;;;6.13;1.80;;;;;;;19.92;16.71;98029.16;10240225;29;20043;-74
2021/04/22 12:50:27;;;;;;;10.10;1.55;;;;;;;19.58;17.19;98031.44;10240409;29;20044;-75
2021/04/22 12:56:00;;;;;;;4.40;1.55;;;;;;;18.90;17.29;98033.81;10228698;29;20039;-75
2021/04/22 13:01:29;;;;;;;7.15;1.83;;;;;;;18.90;17.74;98016.84;10239103;29;20048;-75
2021/04/22 13:06:49;;;;;;;8.20;2.10;;;;;;;18.65;17.71;98020.81;10239503;29;20446;-75
2021/04/22 13:12:10;;;;;;;5.43;1.48;;;;;;;18.40;17.80;98018.34;10225433;29;20497;-75
2021/04/22 13:17:31;;;;;;;11.85;1.35;;;;;;;18.19;17.88;98025.97;10238824;29;20051;-76
2021/04/22 13:22:54;;;;;;;5.45;1.67;;;;;;;18.48;18.15;98025.06;10225163;29;20063;-75
2021/04/22 13:28:18;;;;;;;;;;;;;;;18.52;18.10;98019.56;10229460;28;20091;-75
2021/04/22 13:33:38;;;;;;;8.57;1.95;;;;;;;18.41;18.30;98016.97;10246114;29;19922;-75
2021/04/22 13:39:00;;;;;;;5.88;1.63;;;;;;;18.45;18.30;98006.56;10232539;29;20054;-75
2021/04/22 13:44:21;;;;;;;6.80;1.90;;;;;;;18.27;18.28;97994.50;10232247;29;20414;-75
2021/04/22 13:49:43;;;;;;;7.00;1.77;;;;;;;17.98;18.61;98003.91;10231990;29;20499;-75
2021/04/22 13:55:05;;;;;;;6.13;3.20;;;;;;;17.35;18.94;98003.91;10231889;29;20043;-75
2021/04/22 14:00:25;;;;;;;6.57;1.55;;;;;;;17.24;19.29;97977.34;10231672;29;20055;-76
2021/04/22 14:05:46;;;;;;;7.95;1.90;;;;;;;17.00;19.47;98001.63;10244870;29;20094;-75
2021/04/22 14:11:17;;;;;;;5.88;1.80;;;;;;;16.68;19.81;98003.59;10231254;29;20493;-75
2021/04/22 14:16:38;;;;;;;7.10;1.50;;;;;;;16.36;20.13;97997.88;10244476;29;20043;-76
2021/04/22 14:22:00;;;;;;;10.48;2.50;;;;;;;16.12;20.20;98005.88;10244371;29;20055;-75
2021/04/22 14:27:21;;;;;;;10.82;2.28;;;;;;;16.00;20.36;98008.06;10230991;29;20051;-75
2021/04/22 14:32:41;;;;;;;9.90;1.92;;;;;;;15.92;20.33;98007.63;10257326;29;20094;-75
2021/04/22 14:38:02;;;;;;;7.00;2.20;;;;;;;15.65;20.45;98022.47;10243032;28;20070;-75
2021/04/22 14:43:28;;;;;;;6.65;1.50;;;;;;;15.35;21.09;98027.19;10256933;29;20599;-75
2021/04/22 14:48:49;;;;;;;8.85;2.10;;;;;;;15.29;21.15;98015.59;10243223;29;20050;-75
2021/04/22 14:54:11;;;;;;;7.63;1.98;;;;;;;15.37;21.37;98030.09;10230087;29;20508;-76
2021/04/22 14:59:32;;;;;;;5.95;1.75;;;;;;;15.31;21.34;98038.22;10242852;29;20044;-76
2021/04/22 15:04:52;;;;;;;10.00;2.45;;;;;;;15.31;21.89;98033.31;10229121;28;20062;-75
2021/04/22 15:10:13;;;;;;;13.48;2.10;;;;;;;15.15;22.06;98041.63;10229003;29;20395;-75
2021/04/22 15:15:34;;;;;;;8.45;1.92;;;;;;;14.82;22.01;98046.81;10242069;29;20054;-75
2021/04/22 15:20:57;;;;;;;8.50;4.20;;;;;;;14.92;22.11;98047.34;10255418;29;20490;-75
2021/04/22 15:26:20;;;;;;;6.80;1.98;;;;;;;14.93;22.25;98062.13;10241784;29;20074;-75
2021/04/22 15:31:40;;;;;;;7.30;2.58;;;;;;;14.79;22.26;98070.53;10228694;29;20070;-76
2021/04/22 15:37:01;;;;;;;10.90;2.13;;;;;;;14.51;22.72;98069.66;10241870;29;20505;-75
2021/04/22 15:42:24;;;;;;;5.60;1.95;;;;;;;14.22;22.85;98061.63;10241497;29;20043;-76
2021/04/22 15:47:45;;;;;;;7.13;1.90;;;;;;;14.25;23.13;98077.25;10241401;29;20047;-74
2021/04/22 15:53:06;;;;;;;10.32;2.22;;;;;;;14.00;23.57;98069.47;10227352;29;20066;-74
2021/04/22 15:58:26;;;;;;;5.25;1.80;;;;;;;13.78;23.47;98074.47;10240793;29;20044;-74
2021/04/22 16:03:47;;;;;;;8.50;2.33;;;;;;;13.56;23.62;98089.97;10227127;29;20479;-75
2021/04/22 16:09:08;;;;;;;7.80;2.40;;;;;;;13.52;23.72;98087.66;10227164;29;20443;-74
2021/04/22 16:14:28;;;;;;;7.25;1.90;;;;;;;13.28;23.94;98097.34;10253486;29;20047;-74
2021/04/22 16:19:49;;;;;;;5.75;2.10;;;;;;;12.72;24.75;98087.50;10226681;28;20047;-75
2021/04/22 16:25:12;;;;;;;7.97;1.70;;;;;;;12.36;24.92;98097.06;10253024;29;20499;-74
2021/04/22 16:30:33;;;;;;;7.53;2.10;;;;;;;12.13;25.77;98097.66;10213419;29;20066;-74
2021/04/22 16:35:54;;;;;;;7.80;4.05;;;;;;;12.07;25.51;98100.06;10226145;29;20047;-74
2021/04/22 16:41:14;;;;;;;7.88;3.83;;;;;;;12.06;25.69;98097.81;10252463;29;20047;-76
2021/04/22 16:46:35;;;;;;;5.88;2.00;;;;;;;12.00;25.60;98098.16;10239408;29;20070;-75
2021/04/22 16:51:56;;;;;;;7.68;2.60;;;;;;;11.84;26.18;98108.97;10253612;29;20051;-75
2021/04/22 16:57:16;;;;;;;9.70;2.75;;;;;;;11.62;26.37;98115.81;10227061;29;20043;-75
2021/04/22 17:02:36;;;;;;;9.80;2.72;;;;;;;11.55;26.67;98119.50;10242371;28;20058;-76
2021/04/22 17:07:58;;;;;;;5.90;2.50;;;;;;;11.22;26.76;98127.69;10247937;29;20138;-75
2021/04/22 17:13:19;;;;;;;5.95;2.03;;;;;;;11.16;27.56;98131.50;10258139;29;20051;-76
2021/04/22 17:18:39;;;;;;;8.02;2.25;;;;;;;11.10;27.56;98144.34;10259507;29;20044;-75
2021/04/22 17:24:00;;;;;;;11.13;5.25;;;;;;;10.91;27.49;98145.09;10225939;29;20087;-75
2021/04/22 17:29:20;;;;;;;7.00;1.88;;;;;;;10.65;28.48;98155.06;10232806;29;20075;-75
2021/04/22 17:34:40;;;;;;;7.03;2.45;;;;;;;10.44;28.47;98155.63;10230676;29;20051;-75
2021/04/22 17:40:02;;;;;;;8.57;2.60;;;;;;;10.45;28.67;98156.34;10246151;29;20043;-74
2021/04/22 17:45:23;;;;;;;5.90;2.10;;;;;;;10.46;29.00;98166.91;10242607;29;20051;-75
2021/04/22 17:50:44;;;;;;;7.45;1.88;;;;;;;10.41;29.00;98162.34;10218134;29;20054;-75
2021/04/22 17:56:04;;;;;;;9.68;2.97;;;;;;;10.35;29.29;98164.69;10206209;29;20048;-75
2021/04/22 18:01:25;;;;;;;8.88;2.58;;;;;;;10.35;29.84;98170.28;10206100;29;20071;-75
2021/04/22 18:06:45;;;;;;;10.93;3.00;;;;;;;10.30;29.64;98174.81;10218653;29;20043;-75
2021/04/22 18:12:07;;;;;;;8.68;2.40;;;;;;;10.20;30.20;98176.06;10219200;29;20506;-76
2021/04/22 18:17:27;;;;;;;7.55;2.58;;;;;;;10.07;30.43;98168.13;10218218;29;20372;-74
2021/04/22 18:22:48;;;;;;;11.00;2.80;;;;;;;9.98;30.62;98183.50;10217715;29;20063;-75
2021/04/22 18:28:08;;;;;;;7.72;2.70;;;;;;;9.89;30.85;98184.19;10205103;29;20047;-75
2021/04/22 18:33:30;;;;;;;6.40;2.22;;;;;;;9.84;30.66;98185.16;10217668;29;20451;-76
2021/04/22 18:38:51;;;;;;;7.90;2.58;;;;;;;9.81;31.25;98198.22;10191655;29;20475;-75
2021/04/22 18:44:12;;;;;;;6.57;2.17;;;;;;;9.77;31.49;98197.91;10204385;29;20052;-75
2021/04/22 18:49:32;;;;;;;8.65;2.33;;;;;;;9.76;32.10;98207.59;10216961;29;20484;-74
2021/04/22 18:54:55;;;;;;;8.55;2.28;;;;;;;9.74;31.88;98216.53;10217041;29;20443;-75
2021/04/22 19:00:19;;;;;;;8.60;2.08;;;;;;;9.74;32.63;98216.53;10216920;29;20051;-75
2021/04/22 19:05:40;;;;;;;5.57;1.95;;;;;;;9.69;32.55;98216.81;10189987;29;20055;-76
2021/04/22 19:11:03;;;;;;;7.85;2.10;;;;;;;9.71;33.02;98223.25;10203150;29;20044;-75
2021/04/22 19:16:23;;;;;;;8.68;2.00;;;;;;;9.69;32.67;98236.31;10215184;29;20067;-75
2021/04/22 19:21:44;;;;;;;10.38;2.33;;;;;;;9.65;32.66;98235.97;10176083;29;20052;-75
2021/04/22 19:27:04;;;;;;;9.13;2.53;;;;;;;9.66;33.10;98234.69;10215204;29;20432;-76
2021/04/22 19:32:28;;;;;;;8.27;2.08;;;;;;;9.68;33.21;98240.41;10215731;29;20472;-75
2021/04/22 19:37:49;;;;;;;6.37;2.10;;;;;;;9.65;33.27;98242.31;10198116;29;20047;-76
2021/04/22 19:43:10;;;;;;;7.45;2.20;;;;;;;9.58;33.25;98242.41;10201804;29;20047;-76
2021/04/22 19:48:33;;;;;;;6.70;1.90;;;;;;;9.28;33.50;98249.09;10206973;29;20055;-76
2021/04/22 19:53:53;;;;;;;9.55;2.20;;;;;;;8.94;33.81;98247.75;10230537;29;20046;-74
2021/04/22 19:59:15;;;;;;;10.02;2.50;;;;;;;8.73;34.75;98264.84;10220322;29;20483;-75
2021/04/22 20:04:35;;;;;;;8.70;2.17;;;;;;;8.55;35.07;98258.50;10220845;29;20094;-75
2021/04/22 20:09:55;;;;;;;9.13;2.38;;;;;;;8.41;35.17;98267.72;10219983;29;20039;-75
2021/04/22 20:15:16;;;;;;;10.15;2.83;;;;;;;8.36;35.81;98265.88;10228039;29;20048;-75
2021/04/22 20:20:37;;;;;;;10.15;2.35;;;;;;;8.38;35.65;98279.97;10206163;29;20050;-75
2021/04/22 20:25:58;;;;;;;9.30;2.67;;;;;;;8.38;36.05;98286.25;10207288;29;20095;-75
2021/04/22 20:31:19;;;;;;;7.18;2.47;;;;;;;8.38;35.95;98280.69;10235986;29;20076;-76
2021/04/22 20:36:39;;;;;;;9.23;2.63;;;;;;;8.32;36.06;98288.53;10226302;28;20047;-75
2021/04/22 20:42:00;;;;;;;8.95;2.08;;;;;;;8.28;36.68;98294.47;10252979;28;20058;-75
2021/04/22 20:47:25;;;;;;;6.88;1.92;;;;;;;8.19;36.98;98297.13;10226376;29;20102;-75
2021/04/22 20:52:48;;;;;;;12.65;2.28;;;;;;;8.19;37.31;98291.56;10226551;29;20048;-75
2021/04/22 20:58:08;;;;;;;7.53;1.70;;;;;;;8.14;37.01;98293.28;10252792;29;20043;-76
2021/04/22 21:03:28;;;;;;;6.90;1.75;;;;;;;8.08;36.91;98292.75;10239015;29;20047;-74
2021/04/22 21:08:49;;;;;;;9.07;2.28;;;;;;;7.96;37.73;98300.03;10239159;29;20047;-75
2021/04/22 21:14:13;;;;;;;9.88;3.10;;;;;;;7.85;37.87;98298.44;10238891;29;20050;-75
2021/04/22 21:19:34;;;;;;;8.77;2.00;;;;;;;7.84;37.91;98305.28;10238986;29;20055;-76
2021/04/22 21:24:55;;;;;;;8.55;1.80;;;;;;;7.85;38.33;98314.38;10239085;29;20067;-75
2021/04/22 21:30:21;;;;;;;8.57;2.08;;;;;;;7.84;38.37;98315.69;10238512;29;20047;-75
2021/04/22 21:35:41;;;;;;;9.07;2.10;;;;;;;7.86;38.63;98315.84;10239255;29;20047;-75
2021/04/22 21:41:02;;;;;;;8.10;2.67;;;;;;;7.87;38.82;98323.63;10225378;29;20050;-75
2021/04/22 21:46:22;;;;;;;6.50;2.00;;;;;;;7.80;38.84;98323.66;10238471;29;20403;-74
2021/04/22 21:51:43;;;;;;;8.27;2.17;;;;;;;7.70;39.37;98318.69;10258617;28;20058;-74
2021/04/22 21:57:04;;;;;;;10.52;2.15;;;;;;;7.60;39.41;98325.38;10245325;29;20487;-76
2021/04/22 22:02:25;;;;;;;11.77;2.50;;;;;;;7.54;39.87;98325.63;10232342;29;20043;-75
2021/04/22 22:07:45;;;;;;;8.70;2.42;;;;;;;7.45;39.81;98334.53;10231976;29;20384;-75
2021/04/22 22:13:06;;;;;;;8.85;1.88;;;;;;;7.36;41.03;98337.88;10231377;29;20114;-75
2021/04/22 22:18:27;;;;;;;8.52;2.20;;;;;;;7.29;40.33;98344.91;10244552;29;20422;-75
2021/04/22 22:23:49;;;;;;;6.60;2.05;;;;;;;7.22;40.72;98344.94;10231217;29;20062;-75
2021/04/22 22:29:09;;;;;;;5.10;1.60;;;;;;;7.11;41.14;98357.91;10244158;29;20050;-74
2021/04/22 22:34:31;;;;;;;5.13;1.48;;;;;;;6.99;41.01;98356.06;10230958;29;20047;-75
2021/04/22 22:39:51;;;;;;;7.18;1.95;;;;;;;6.95;41.44;98358.47;10230973;29;20047;-74
2021/04/22 22:45:14;;;;;;;6.80;1.77;;;;;;;6.78;41.72;98359.78;10243387;29;20051;-75
2021/04/22 22:50:35;;;;;;;8.10;1.73;;;;;;;6.67;41.83;98365.69;10243417;29;20098;-75
2021/04/22 22:55:55;;;;;;;8.07;1.83;;;;;;;6.59;42.45;98368.44;10243053;29;20046;-75
2021/04/22 23:01:16;;;;;;;10.02;1.67;;;;;;;6.50;42.34;98369.00;10242198;28;20071;-75
2021/04/22 23:06:36;;;;;;;5.40;1.60;;;;;;;6.49;42.68;98366.78;10229583;29;20171;-75
2021/04/22 23:11:57;;;;;;;7.60;1.70;;;;;;;6.39;42.79;98372.13;10229266;29;20069;-75
2021/04/22 23:17:17;;;;;;;8.60;1.50;;;;;;;6.34;42.92;98377.81;10242508;29;20040;-75
2021/04/22 23:22:38;;;;;;;7.75;1.65;;;;;;;6.26;43.53;98367.44;10228505;29;20055;-75
2021/04/22 23:27:58;;;;;;;6.40;1.63;;;;;;;6.18;43.25;98372.25;10242047;29;20745;-75
2021/04/22 23:33:19;;;;;;;7.43;1.92;;;;;;;6.10;44.32;98376.28;10228664;29;20051;-74
2021/04/22 23:38:40;;;;;;;6.60;1.92;;;;;;;6.01;43.80;98383.84;10241734;28;20506;-75
2021/04/22 23:44:00;;;;;;;8.70;2.22;;;;;;;5.97;44.43;98379.91;10241813;28;20043;-75
2021/04/22 23:49:21;;;;;;;9.48;2.45;;;;;;;5.85;44.71;98385.03;10254593;29;20121;-75
2021/04/22 23:54:41;;;;;;;6.78;2.08;;;;;;;5.86;44.83;98385.75;10254640;28;20379;-75
